sensor_id;sensor_type;location;lat;lon;timestamp;P1;durP1;ratioP1;P2;durP2;ratioP2
48935;SDS011;34745;52.276;10.528;2022-11-20T00:00:20;27.27;;;14.90;;
48935;SDS011;34745;52.276;10.528;2022-11-20T00:02:48;23.33;;;15.23;;
48935;SDS011;34745;52.276;10.528;2022-11-20T00:05:14;23.33;;;15.13;;
48935;SDS011;34745;52.276;10.528;2022-11-20T00:07:42;24.17;;;15.07;;
48935;SDS011;34745;52.276;10.528;2022-11-20T00:10:09;22.77;;;14.53;;
48935;SDS011;34745;52.276;10.528;2022-11-20T00:12:36;26.93;;;13.60;;
48935;SDS011;34745;52.276;10.528;2022-11-20T00:15:04;25.87;;;15.43;;
48935;SDS011;34745;52.276;10.528;2022-11-20T00:17:32;23.33;;;13.90;;
48935;SDS011;34745;52.276;10.528;2022-11-20T00:19:59;20.63;;;13.33;;
48935;SDS011;34745;52.276;10.528;2022-11-20T00:22:27;19.23;;;13.33;;
48935;SDS011;34745;52.276;10.528;2022-11-20T00:24:54;22.73;;;13.47;;
48935;SDS011;34745;52.276;10.528;2022-11-20T00:27:21;21.90;;;13.33;;
48935;SDS011;34745;52.276;10.528;2022-11-20T00:29:48;21.20;;;13.63;;
48935;SDS011;34745;52.276;10.528;2022-11-20T00:32:16;20.43;;;12.77;;
48935;SDS011;34745;52.276;10.528;2022-11-20T00:34:43;21.03;;;13.63;;
48935;SDS011;34745;52.276;10.528;2022-11-20T00:37:11;19.00;;;13.30;;
48935;SDS011;34745;52.276;10.528;2022-11-20T00:39:37;21.90;;;12.90;;
48935;SDS011;34745;52.276;10.528;2022-11-20T00:42:05;18.77;;;12.43;;
48935;SDS011;34745;52.276;10.528;2022-11-20T00:44:32;22.07;;;13.17;;
48935;SDS011;34745;52.276;10.528;2022-11-20T00:46:59;22.40;;;13.83;;
48935;SDS011;34745;52.276;10.528;2022-11-20T00:49:27;21.07;;;12.90;;
48935;SDS011;34745;52.276;10.528;2022-11-20T00:51:55;17.90;;;12.37;;
48935;SDS011;34745;52.276;10.528;2022-11-20T00:54:21;18.23;;;11.60;;
48935;SDS011;34745;52.276;10.528;2022-11-20T00:56:48;19.70;;;12.50;;
48935;SDS011;34745;52.276;10.528;2022-11-20T00:59:15;24.07;;;12.30;;
48935;SDS011;34745;52.276;10.528;2022-11-20T01:01:42;20.27;;;13.43;;
48935;SDS011;34745;52.276;10.528;2022-11-20T01:04:09;19.70;;;13.10;;
48935;SDS011;34745;52.276;10.528;2022-11-20T01:06:38;22.57;;;12.97;;
48935;SDS011;34745;52.276;10.528;2022-11-20T01:09:06;20.23;;;12.80;;
48935;SDS011;34745;52.276;10.528;2022-11-20T01:11:36;18.20;;;12.53;;
48935;SDS011;34745;52.276;10.528;2022-11-20T01:14:05;20.37;;;12.33;;
48935;SDS011;34745;52.276;10.528;2022-11-20T01:16:35;22.93;;;13.63;;
48935;SDS011;34745;52.276;10.528;2022-11-20T01:19:04;16.50;;;11.77;;
48935;SDS011;34745;52.276;10.528;2022-11-20T01:21:34;18.57;;;12.50;;
48935;SDS011;34745;52.276;10.528;2022-11-20T01:24:03;19.73;;;12.73;;
48935;SDS011;34745;52.276;10.528;2022-11-20T01:26:34;20.97;;;12.80;;
48935;SDS011;34745;52.276;10.528;2022-11-20T01:29:03;20.10;;;13.33;;
48935;SDS011;34745;52.276;10.528;2022-11-20T01:31:32;21.63;;;13.03;;
48935;SDS011;34745;52.276;10.528;2022-11-20T01:34:01;19.47;;;12.87;;
48935;SDS011;34745;52.276;10.528;2022-11-20T01:36:30;19.03;;;12.77;;
48935;SDS011;34745;52.276;10.528;2022-11-20T01:39:00;21.70;;;13.27;;
48935;SDS011;34745;52.276;10.528;2022-11-20T01:41:31;19.43;;;12.60;;
48935;SDS011;34745;52.276;10.528;2022-11-20T01:44:20;20.87;;;13.47;;
48935;SDS011;34745;52.276;10.528;2022-11-20T01:46:51;23.37;;;13.50;;
48935;SDS011;34745;52.276;10.528;2022-11-20T01:49:23;21.77;;;13.70;;
48935;SDS011;34745;52.276;10.528;2022-11-20T01:51:54;22.37;;;13.40;;
48935;SDS011;34745;52.276;10.528;2022-11-20T01:54:27;19.70;;;13.50;;
48935;SDS011;34745;52.276;10.528;2022-11-20T01:57:02;22.77;;;14.57;;
48935;SDS011;34745;52.276;10.528;2022-11-20T01:59:32;24.60;;;14.63;;
48935;SDS011;34745;52.276;10.528;2022-11-20T02:02:02;20.83;;;13.73;;
48935;SDS011;34745;52.276;10.528;2022-11-20T02:04:29;18.90;;;13.17;;
48935;SDS011;34745;52.276;10.528;2022-11-20T02:06:57;26.33;;;14.80;;
48935;SDS011;34745;52.276;10.528;2022-11-20T02:09:27;22.80;;;14.37;;
48935;SDS011;34745;52.276;10.528;2022-11-20T02:11:55;21.20;;;14.47;;
48935;SDS011;34745;52.276;10.528;2022-11-20T02:14:23;23.03;;;14.80;;
48935;SDS011;34745;52.276;10.528;2022-11-20T02:16:51;23.40;;;14.47;;
48935;SDS011;34745;52.276;10.528;2022-11-20T02:19:22;23.67;;;13.93;;
48935;SDS011;34745;52.276;10.528;2022-11-20T02:21:54;20.20;;;13.87;;
48935;SDS011;34745;52.276;10.528;2022-11-20T02:24:27;20.13;;;13.17;;
48935;SDS011;34745;52.276;10.528;2022-11-20T02:26:56;20.97;;;13.53;;
48935;SDS011;34745;52.276;10.528;2022-11-20T02:29:26;20.10;;;12.17;;
48935;SDS011;34745;52.276;10.528;2022-11-20T02:31:57;20.20;;;12.83;;
48935;SDS011;34745;52.276;10.528;2022-11-20T02:34:27;20.03;;;12.67;;
48935;SDS011;34745;52.276;10.528;2022-11-20T02:36:55;22.17;;;13.40;;
48935;SDS011;34745;52.276;10.528;2022-11-20T02:39:24;22.23;;;13.37;;
48935;SDS011;34745;52.276;10.528;2022-11-20T02:41:54;18.87;;;12.97;;
48935;SDS011;34745;52.276;10.528;2022-11-20T02:44:23;20.03;;;13.57;;
48935;SDS011;34745;52.276;10.528;2022-11-20T02:46:50;21.60;;;14.27;;
48935;SDS011;34745;52.276;10.528;2022-11-20T02:49:17;19.60;;;13.27;;
48935;SDS011;34745;52.276;10.528;2022-11-20T02:51:45;23.13;;;13.57;;
48935;SDS011;34745;52.276;10.528;2022-11-20T02:54:12;19.83;;;13.23;;
48935;SDS011;34745;52.276;10.528;2022-11-20T02:56:41;19.93;;;13.40;;
48935;SDS011;34745;52.276;10.528;2022-11-20T02:59:08;18.63;;;12.37;;
48935;SDS011;34745;52.276;10.528;2022-11-20T03:01:35;20.43;;;13.30;;
48935;SDS011;34745;52.276;10.528;2022-11-20T03:04:02;19.17;;;13.00;;
48935;SDS011;34745;52.276;10.528;2022-11-20T03:06:29;22.17;;;13.63;;
48935;SDS011;34745;52.276;10.528;2022-11-20T03:08:56;21.93;;;13.67;;
48935;SDS011;34745;52.276;10.528;2022-11-20T03:11:24;20.27;;;12.83;;
48935;SDS011;34745;52.276;10.528;2022-11-20T03:13:52;19.13;;;13.10;;
48935;SDS011;34745;52.276;10.528;2022-11-20T03:16:20;22.87;;;12.93;;
48935;SDS011;34745;52.276;10.528;2022-11-20T03:18:48;22.87;;;13.37;;
48935;SDS011;34745;52.276;10.528;2022-11-20T03:21:18;20.87;;;13.63;;
48935;SDS011;34745;52.276;10.528;2022-11-20T03:23:45;22.23;;;13.97;;
48935;SDS011;34745;52.276;10.528;2022-11-20T03:26:14;20.53;;;13.80;;
48935;SDS011;34745;52.276;10.528;2022-11-20T03:28:46;21.00;;;13.63;;
48935;SDS011;34745;52.276;10.528;2022-11-20T03:31:16;20.20;;;13.57;;
48935;SDS011;34745;52.276;10.528;2022-11-20T03:33:44;22.43;;;13.73;;
48935;SDS011;34745;52.276;10.528;2022-11-20T03:36:12;21.30;;;13.50;;
48935;SDS011;34745;52.276;10.528;2022-11-20T03:38:40;20.90;;;13.40;;
48935;SDS011;34745;52.276;10.528;2022-11-20T03:41:09;24.03;;;14.13;;
48935;SDS011;34745;52.276;10.528;2022-11-20T03:43:37;21.50;;;13.83;;
48935;SDS011;34745;52.276;10.528;2022-11-20T03:46:05;19.80;;;12.87;;
48935;SDS011;34745;52.276;10.528;2022-11-20T03:48:34;24.40;;;15.17;;
48935;SDS011;34745;52.276;10.528;2022-11-20T03:51:08;26.93;;;14.20;;
48935;SDS011;34745;52.276;10.528;2022-11-20T03:53:36;19.97;;;13.20;;
48935;SDS011;34745;52.276;10.528;2022-11-20T03:56:04;20.87;;;13.50;;
48935;SDS011;34745;52.276;10.528;2022-11-20T03:58:32;19.33;;;13.83;;
48935;SDS011;34745;52.276;10.528;2022-11-20T04:01:04;20.37;;;13.70;;
48935;SDS011;34745;52.276;10.528;2022-11-20T04:03:32;19.73;;;13.30;;
48935;SDS011;34745;52.276;10.528;2022-11-20T04:06:02;19.57;;;13.27;;
48935;SDS011;34745;52.276;10.528;2022-11-20T04:08:30;21.83;;;13.53;;
48935;SDS011;34745;52.276;10.528;2022-11-20T04:11:07;21.83;;;14.27;;
48935;SDS011;34745;52.276;10.528;2022-11-20T04:13:35;19.83;;;13.60;;
48935;SDS011;34745;52.276;10.528;2022-11-20T04:16:02;20.63;;;13.47;;
48935;SDS011;34745;52.276;10.528;2022-11-20T04:18:30;19.73;;;13.10;;
48935;SDS011;34745;52.276;10.528;2022-11-20T04:20:58;20.17;;;13.83;;
48935;SDS011;34745;52.276;10.528;2022-11-20T04:23:26;19.90;;;12.77;;
48935;SDS011;34745;52.276;10.528;2022-11-20T04:25:54;21.23;;;14.17;;
48935;SDS011;34745;52.276;10.528;2022-11-20T04:28:21;20.93;;;13.60;;
48935;SDS011;34745;52.276;10.528;2022-11-20T04:30:48;23.20;;;14.13;;
48935;SDS011;34745;52.276;10.528;2022-11-20T04:33:15;19.50;;;12.63;;
48935;SDS011;34745;52.276;10.528;2022-11-20T04:35:42;20.67;;;13.73;;
48935;SDS011;34745;52.276;10.528;2022-11-20T04:38:14;28.97;;;14.30;;
48935;SDS011;34745;52.276;10.528;2022-11-20T04:40:41;20.30;;;13.90;;
48935;SDS011;34745;52.276;10.528;2022-11-20T04:43:08;20.17;;;13.23;;
48935;SDS011;34745;52.276;10.528;2022-11-20T04:45:35;18.80;;;13.27;;
48935;SDS011;34745;52.276;10.528;2022-11-20T04:48:02;19.17;;;13.40;;
48935;SDS011;34745;52.276;10.528;2022-11-20T04:50:29;26.50;;;13.93;;
48935;SDS011;34745;52.276;10.528;2022-11-20T04:52:56;21.33;;;13.77;;
48935;SDS011;34745;52.276;10.528;2022-11-20T04:55:25;20.57;;;13.90;;
48935;SDS011;34745;52.276;10.528;2022-11-20T04:57:52;22.17;;;14.27;;
48935;SDS011;34745;52.276;10.528;2022-11-20T05:00:19;19.33;;;13.53;;
48935;SDS011;34745;52.276;10.528;2022-11-20T05:02:46;18.33;;;12.83;;
48935;SDS011;34745;52.276;10.528;2022-11-20T05:05:14;22.53;;;13.97;;
48935;SDS011;34745;52.276;10.528;2022-11-20T05:07:41;20.20;;;13.87;;
48935;SDS011;34745;52.276;10.528;2022-11-20T05:10:08;21.93;;;14.30;;
48935;SDS011;34745;52.276;10.528;2022-11-20T05:12:36;20.30;;;14.40;;
48935;SDS011;34745;52.276;10.528;2022-11-20T05:15:04;17.70;;;12.80;;
48935;SDS011;34745;52.276;10.528;2022-11-20T05:17:32;18.73;;;12.93;;
48935;SDS011;34745;52.276;10.528;2022-11-20T05:19:59;20.53;;;13.87;;
48935;SDS011;34745;52.276;10.528;2022-11-20T05:22:26;19.67;;;13.23;;
48935;SDS011;34745;52.276;10.528;2022-11-20T05:24:54;20.83;;;14.37;;
48935;SDS011;34745;52.276;10.528;2022-11-20T05:27:20;21.07;;;14.23;;
48935;SDS011;34745;52.276;10.528;2022-11-20T05:29:49;19.33;;;12.93;;
48935;SDS011;34745;52.276;10.528;2022-11-20T05:32:16;20.00;;;13.07;;
48935;SDS011;34745;52.276;10.528;2022-11-20T05:34:43;21.00;;;13.63;;
48935;SDS011;34745;52.276;10.528;2022-11-20T05:37:10;20.70;;;13.40;;
48935;SDS011;34745;52.276;10.528;2022-11-20T05:39:37;20.50;;;13.30;;
48935;SDS011;34745;52.276;10.528;2022-11-20T05:42:04;20.83;;;13.50;;
48935;SDS011;34745;52.276;10.528;2022-11-20T05:44:51;19.30;;;13.00;;
48935;SDS011;34745;52.276;10.528;2022-11-20T05:47:18;21.93;;;14.43;;
48935;SDS011;34745;52.276;10.528;2022-11-20T05:49:45;21.90;;;13.07;;
48935;SDS011;34745;52.276;10.528;2022-11-20T05:52:12;20.33;;;13.93;;
48935;SDS011;34745;52.276;10.528;2022-11-20T05:54:39;20.67;;;12.83;;
48935;SDS011;34745;52.276;10.528;2022-11-20T05:57:06;19.73;;;13.23;;
48935;SDS011;34745;52.276;10.528;2022-11-20T05:59:33;17.60;;;12.77;;
48935;SDS011;34745;52.276;10.528;2022-11-20T06:02:02;18.23;;;12.77;;
48935;SDS011;34745;52.276;10.528;2022-11-20T06:04:29;22.00;;;13.67;;
48935;SDS011;34745;52.276;10.528;2022-11-20T06:06:56;20.27;;;13.23;;
48935;SDS011;34745;52.276;10.528;2022-11-20T06:09:23;19.80;;;12.97;;
48935;SDS011;34745;52.276;10.528;2022-11-20T06:11:50;18.20;;;13.37;;
48935;SDS011;34745;52.276;10.528;2022-11-20T06:14:17;16.90;;;12.40;;
48935;SDS011;34745;52.276;10.528;2022-11-20T06:16:44;20.37;;;13.57;;
48935;SDS011;34745;52.276;10.528;2022-11-20T06:19:12;19.43;;;13.23;;
48935;SDS011;34745;52.276;10.528;2022-11-20T06:21:40;18.73;;;13.23;;
48935;SDS011;34745;52.276;10.528;2022-11-20T06:24:08;17.83;;;12.67;;
48935;SDS011;34745;52.276;10.528;2022-11-20T06:26:36;20.43;;;13.30;;
48935;SDS011;34745;52.276;10.528;2022-11-20T06:29:03;17.37;;;12.20;;
48935;SDS011;34745;52.276;10.528;2022-11-20T06:31:30;19.00;;;12.70;;
48935;SDS011;34745;52.276;10.528;2022-11-20T06:34:01;18.90;;;12.60;;
48935;SDS011;34745;52.276;10.528;2022-11-20T06:36:29;18.83;;;13.10;;
48935;SDS011;34745;52.276;10.528;2022-11-20T06:38:57;20.53;;;13.20;;
48935;SDS011;34745;52.276;10.528;2022-11-20T06:41:24;17.53;;;12.97;;
48935;SDS011;34745;52.276;10.528;2022-11-20T06:43:51;18.60;;;12.47;;
48935;SDS011;34745;52.276;10.528;2022-11-20T06:46:19;20.73;;;13.27;;
48935;SDS011;34745;52.276;10.528;2022-11-20T06:48:47;24.03;;;14.00;;
48935;SDS011;34745;52.276;10.528;2022-11-20T06:51:15;20.57;;;12.80;;
48935;SDS011;34745;52.276;10.528;2022-11-20T06:53:44;22.10;;;14.20;;
48935;SDS011;34745;52.276;10.528;2022-11-20T06:56:11;17.10;;;12.37;;
48935;SDS011;34745;52.276;10.528;2022-11-20T06:58:38;19.03;;;12.77;;
48935;SDS011;34745;52.276;10.528;2022-11-20T07:01:06;18.70;;;12.80;;
48935;SDS011;34745;52.276;10.528;2022-11-20T07:03:36;20.47;;;12.47;;
48935;SDS011;34745;52.276;10.528;2022-11-20T07:06:03;20.97;;;13.33;;
48935;SDS011;34745;52.276;10.528;2022-11-20T07:08:31;20.53;;;13.23;;
48935;SDS011;34745;52.276;10.528;2022-11-20T07:11:01;18.87;;;12.50;;
48935;SDS011;34745;52.276;10.528;2022-11-20T07:13:32;17.47;;;12.70;;
48935;SDS011;34745;52.276;10.528;2022-11-20T07:16:00;20.50;;;13.37;;
48935;SDS011;34745;52.276;10.528;2022-11-20T07:18:28;18.40;;;13.20;;
48935;SDS011;34745;52.276;10.528;2022-11-20T07:20:55;22.90;;;12.70;;
48935;SDS011;34745;52.276;10.528;2022-11-20T07:23:26;17.87;;;12.47;;
48935;SDS011;34745;52.276;10.528;2022-11-20T07:25:53;21.93;;;12.73;;
48935;SDS011;34745;52.276;10.528;2022-11-20T07:28:22;24.80;;;12.70;;
48935;SDS011;34745;52.276;10.528;2022-11-20T07:30:50;18.97;;;13.17;;
48935;SDS011;34745;52.276;10.528;2022-11-20T07:33:17;18.80;;;11.40;;
48935;SDS011;34745;52.276;10.528;2022-11-20T07:35:44;18.83;;;13.37;;
48935;SDS011;34745;52.276;10.528;2022-11-20T07:38:12;23.23;;;13.23;;
48935;SDS011;34745;52.276;10.528;2022-11-20T07:40:39;21.00;;;12.47;;
48935;SDS011;34745;52.276;10.528;2022-11-20T07:43:06;19.13;;;13.27;;
48935;SDS011;34745;52.276;10.528;2022-11-20T07:45:35;18.20;;;12.53;;
48935;SDS011;34745;52.276;10.528;2022-11-20T07:48:02;20.97;;;13.67;;
48935;SDS011;34745;52.276;10.528;2022-11-20T07:50:29;21.37;;;13.27;;
48935;SDS011;34745;52.276;10.528;2022-11-20T07:53:00;20.57;;;13.00;;
48935;SDS011;34745;52.276;10.528;2022-11-20T07:55:29;20.23;;;12.53;;
48935;SDS011;34745;52.276;10.528;2022-11-20T07:57:56;19.10;;;12.93;;
48935;SDS011;34745;52.276;10.528;2022-11-20T08:00:24;19.20;;;12.93;;
48935;SDS011;34745;52.276;10.528;2022-11-20T08:02:53;20.60;;;12.83;;
48935;SDS011;34745;52.276;10.528;2022-11-20T08:05:20;19.63;;;12.57;;
48935;SDS011;34745;52.276;10.528;2022-11-20T08:07:48;19.90;;;13.13;;
48935;SDS011;34745;52.276;10.528;2022-11-20T08:10:15;20.83;;;13.33;;
48935;SDS011;34745;52.276;10.528;2022-11-20T08:12:43;19.80;;;12.47;;
48935;SDS011;34745;52.276;10.528;2022-11-20T08:15:29;21.20;;;13.40;;
48935;SDS011;34745;52.276;10.528;2022-11-20T08:18:02;18.30;;;12.93;;
48935;SDS011;34745;52.276;10.528;2022-11-20T08:20:51;18.73;;;12.53;;
48935;SDS011;34745;52.276;10.528;2022-11-20T08:23:18;20.80;;;13.53;;
48935;SDS011;34745;52.276;10.528;2022-11-20T08:25:48;20.47;;;12.13;;
48935;SDS011;34745;52.276;10.528;2022-11-20T08:28:16;21.23;;;13.33;;
48935;SDS011;34745;52.276;10.528;2022-11-20T08:30:46;20.10;;;12.30;;
48935;SDS011;34745;52.276;10.528;2022-11-20T08:33:15;19.90;;;12.43;;
48935;SDS011;34745;52.276;10.528;2022-11-20T08:35:43;16.67;;;12.23;;
48935;SDS011;34745;52.276;10.528;2022-11-20T08:38:11;18.97;;;12.80;;
48935;SDS011;34745;52.276;10.528;2022-11-20T08:40:38;20.67;;;12.93;;
48935;SDS011;34745;52.276;10.528;2022-11-20T08:43:05;19.63;;;12.13;;
48935;SDS011;34745;52.276;10.528;2022-11-20T08:45:32;17.40;;;11.67;;
48935;SDS011;34745;52.276;10.528;2022-11-20T08:48:00;18.93;;;12.53;;
48935;SDS011;34745;52.276;10.528;2022-11-20T08:50:31;17.97;;;10.63;;
48935;SDS011;34745;52.276;10.528;2022-11-20T08:53:02;18.53;;;12.40;;
48935;SDS011;34745;52.276;10.528;2022-11-20T08:55:29;17.30;;;12.20;;
48935;SDS011;34745;52.276;10.528;2022-11-20T08:57:56;19.50;;;12.80;;
48935;SDS011;34745;52.276;10.528;2022-11-20T09:00:24;20.20;;;12.67;;
48935;SDS011;34745;52.276;10.528;2022-11-20T09:02:51;19.40;;;12.80;;
48935;SDS011;34745;52.276;10.528;2022-11-20T09:05:18;15.70;;;10.27;;
48935;SDS011;34745;52.276;10.528;2022-11-20T09:07:46;18.47;;;12.30;;
48935;SDS011;34745;52.276;10.528;2022-11-20T09:10:13;19.33;;;11.03;;
48935;SDS011;34745;52.276;10.528;2022-11-20T09:12:50;17.13;;;11.43;;
48935;SDS011;34745;52.276;10.528;2022-11-20T09:15:18;20.53;;;13.20;;
48935;SDS011;34745;52.276;10.528;2022-11-20T09:17:50;21.87;;;13.40;;
48935;SDS011;34745;52.276;10.528;2022-11-20T09:20:18;18.53;;;11.63;;
48935;SDS011;34745;52.276;10.528;2022-11-20T09:22:47;17.83;;;12.27;;
48935;SDS011;34745;52.276;10.528;2022-11-20T09:25:14;19.60;;;11.90;;
48935;SDS011;34745;52.276;10.528;2022-11-20T09:27:42;19.53;;;12.40;;
48935;SDS011;34745;52.276;10.528;2022-11-20T09:30:11;16.37;;;11.43;;
48935;SDS011;34745;52.276;10.528;2022-11-20T09:32:39;20.20;;;12.43;;
48935;SDS011;34745;52.276;10.528;2022-11-20T09:35:07;17.30;;;11.50;;
48935;SDS011;34745;52.276;10.528;2022-11-20T09:37:35;23.37;;;12.10;;
48935;SDS011;34745;52.276;10.528;2022-11-20T09:40:04;16.60;;;11.00;;
48935;SDS011;34745;52.276;10.528;2022-11-20T09:42:34;20.03;;;12.00;;
48935;SDS011;34745;52.276;10.528;2022-11-20T09:45:19;16.60;;;12.03;;
48935;SDS011;34745;52.276;10.528;2022-11-20T09:50:54;17.30;;;11.17;;
48935;SDS011;34745;52.276;10.528;2022-11-20T09:53:29;18.90;;;11.80;;
48935;SDS011;34745;52.276;10.528;2022-11-20T09:56:03;14.23;;;10.53;;
48935;SDS011;34745;52.276;10.528;2022-11-20T09:58:32;20.70;;;10.77;;
48935;SDS011;34745;52.276;10.528;2022-11-20T10:01:07;14.83;;;10.57;;
48935;SDS011;34745;52.276;10.528;2022-11-20T10:03:39;15.77;;;11.30;;
48935;SDS011;34745;52.276;10.528;2022-11-20T10:06:15;15.87;;;10.53;;
48935;SDS011;34745;52.276;10.528;2022-11-20T10:08:48;18.30;;;11.53;;
48935;SDS011;34745;52.276;10.528;2022-11-20T10:11:27;16.57;;;10.60;;
48935;SDS011;34745;52.276;10.528;2022-11-20T10:14:07;14.27;;;10.00;;
48935;SDS011;34745;52.276;10.528;2022-11-20T10:16:42;15.40;;;10.20;;
48935;SDS011;34745;52.276;10.528;2022-11-20T10:19:21;15.10;;;10.57;;
48935;SDS011;34745;52.276;10.528;2022-11-20T10:22:11;12.00;;;9.00;;
48935;SDS011;34745;52.276;10.528;2022-11-20T10:24:52;15.00;;;10.87;;
48935;SDS011;34745;52.276;10.528;2022-11-20T10:27:37;16.63;;;11.27;;
48935;SDS011;34745;52.276;10.528;2022-11-20T10:30:15;16.07;;;11.70;;
48935;SDS011;34745;52.276;10.528;2022-11-20T10:32:45;16.17;;;11.27;;
48935;SDS011;34745;52.276;10.528;2022-11-20T10:35:16;20.23;;;11.70;;
48935;SDS011;34745;52.276;10.528;2022-11-20T10:37:49;18.90;;;11.53;;
48935;SDS011;34745;52.276;10.528;2022-11-20T10:40:23;17.33;;;11.67;;
48935;SDS011;34745;52.276;10.528;2022-11-20T10:43:01;19.83;;;11.83;;
48935;SDS011;34745;52.276;10.528;2022-11-20T10:45:36;17.53;;;12.20;;
48935;SDS011;34745;52.276;10.528;2022-11-20T10:48:20;19.70;;;11.97;;
48935;SDS011;34745;52.276;10.528;2022-11-20T10:51:00;20.40;;;12.47;;
48935;SDS011;34745;52.276;10.528;2022-11-20T10:53:40;16.97;;;11.33;;
48935;SDS011;34745;52.276;10.528;2022-11-20T10:56:16;15.77;;;11.70;;
48935;SDS011;34745;52.276;10.528;2022-11-20T10:58:51;18.07;;;10.40;;
48935;SDS011;34745;52.276;10.528;2022-11-20T11:01:26;19.17;;;11.20;;
48935;SDS011;34745;52.276;10.528;2022-11-20T11:03:54;16.70;;;11.60;;
48935;SDS011;34745;52.276;10.528;2022-11-20T11:06:24;19.13;;;12.50;;
48935;SDS011;34745;52.276;10.528;2022-11-20T11:08:56;17.33;;;11.80;;
48935;SDS011;34745;52.276;10.528;2022-11-20T11:11:27;16.83;;;10.67;;
48935;SDS011;34745;52.276;10.528;2022-11-20T11:14:05;17.93;;;12.27;;
48935;SDS011;34745;52.276;10.528;2022-11-20T11:16:32;17.77;;;12.20;;
48935;SDS011;34745;52.276;10.528;2022-11-20T11:19:03;17.10;;;10.87;;
48935;SDS011;34745;52.276;10.528;2022-11-20T11:21:31;17.97;;;11.70;;
48935;SDS011;34745;52.276;10.528;2022-11-20T11:23:59;17.77;;;12.00;;
48935;SDS011;34745;52.276;10.528;2022-11-20T11:26:52;16.17;;;12.03;;
48935;SDS011;34745;52.276;10.528;2022-11-20T11:29:24;14.30;;;10.53;;
48935;SDS011;34745;52.276;10.528;2022-11-20T11:32:03;15.37;;;10.80;;
48935;SDS011;34745;52.276;10.528;2022-11-20T11:34:31;18.67;;;11.03;;
48935;SDS011;34745;52.276;10.528;2022-11-20T11:36:59;21.30;;;12.37;;
48935;SDS011;34745;52.276;10.528;2022-11-20T11:39:28;15.63;;;10.73;;
48935;SDS011;34745;52.276;10.528;2022-11-20T11:41:57;17.77;;;12.23;;
48935;SDS011;34745;52.276;10.528;2022-11-20T11:44:28;13.50;;;9.80;;
48935;SDS011;34745;52.276;10.528;2022-11-20T11:47:35;14.63;;;10.70;;
48935;SDS011;34745;52.276;10.528;2022-11-20T11:50:13;15.17;;;10.87;;
48935;SDS011;34745;52.276;10.528;2022-11-20T11:52:43;15.10;;;10.40;;
48935;SDS011;34745;52.276;10.528;2022-11-20T11:55:15;16.27;;;11.57;;
48935;SDS011;34745;52.276;10.528;2022-11-20T11:57:52;15.17;;;10.93;;
48935;SDS011;34745;52.276;10.528;2022-11-20T12:00:25;15.73;;;11.17;;
48935;SDS011;34745;52.276;10.528;2022-11-20T12:02:55;17.47;;;11.50;;
48935;SDS011;34745;52.276;10.528;2022-11-20T12:05:27;12.93;;;10.27;;
48935;SDS011;34745;52.276;10.528;2022-11-20T12:07:57;14.97;;;10.50;;
48935;SDS011;34745;52.276;10.528;2022-11-20T12:10:37;15.87;;;11.97;;
48935;SDS011;34745;52.276;10.528;2022-11-20T12:13:14;15.37;;;11.20;;
48935;SDS011;34745;52.276;10.528;2022-11-20T12:15:49;15.20;;;10.17;;
48935;SDS011;34745;52.276;10.528;2022-11-20T12:18:17;17.10;;;11.33;;
48935;SDS011;34745;52.276;10.528;2022-11-20T12:20:48;14.20;;;9.70;;
48935;SDS011;34745;52.276;10.528;2022-11-20T12:23:25;13.30;;;9.60;;
48935;SDS011;34745;52.276;10.528;2022-11-20T12:26:01;12.70;;;9.10;;
48935;SDS011;34745;52.276;10.528;2022-11-20T12:28:39;13.27;;;9.53;;
48935;SDS011;34745;52.276;10.528;2022-11-20T12:31:29;13.37;;;9.63;;
48935;SDS011;34745;52.276;10.528;2022-11-20T12:34:09;12.30;;;9.10;;
48935;SDS011;34745;52.276;10.528;2022-11-20T12:36:49;13.03;;;9.00;;
48935;SDS011;34745;52.276;10.528;2022-11-20T12:39:29;10.90;;;8.47;;
48935;SDS011;34745;52.276;10.528;2022-11-20T12:45:28;16.10;;;9.43;;
48935;SDS011;34745;52.276;10.528;2022-11-20T12:48:25;12.83;;;8.93;;
48935;SDS011;34745;52.276;10.528;2022-11-20T12:51:15;14.93;;;9.87;;
48935;SDS011;34745;52.276;10.528;2022-11-20T12:53:58;14.97;;;9.97;;
48935;SDS011;34745;52.276;10.528;2022-11-20T12:56:38;16.33;;;9.57;;
48935;SDS011;34745;52.276;10.528;2022-11-20T12:59:20;13.03;;;8.63;;
48935;SDS011;34745;52.276;10.528;2022-11-20T13:01:56;15.67;;;10.63;;
48935;SDS011;34745;52.276;10.528;2022-11-20T13:04:34;14.30;;;10.23;;
48935;SDS011;34745;52.276;10.528;2022-11-20T13:07:13;13.63;;;9.70;;
48935;SDS011;34745;52.276;10.528;2022-11-20T13:09:43;14.50;;;9.37;;
48935;SDS011;34745;52.276;10.528;2022-11-20T13:12:14;11.63;;;8.17;;
48935;SDS011;34745;52.276;10.528;2022-11-20T13:14:47;13.53;;;9.43;;
48935;SDS011;34745;52.276;10.528;2022-11-20T13:17:21;14.13;;;9.57;;
48935;SDS011;34745;52.276;10.528;2022-11-20T13:19:56;12.50;;;9.17;;
48935;SDS011;34745;52.276;10.528;2022-11-20T13:22:28;13.93;;;10.17;;
48935;SDS011;34745;52.276;10.528;2022-11-20T13:24:56;13.60;;;9.30;;
48935;SDS011;34745;52.276;10.528;2022-11-20T13:27:23;14.03;;;10.10;;
48935;SDS011;34745;52.276;10.528;2022-11-20T13:29:58;14.80;;;11.07;;
48935;SDS011;34745;52.276;10.528;2022-11-20T13:32:47;16.40;;;10.43;;
48935;SDS011;34745;52.276;10.528;2022-11-20T13:35:30;14.00;;;10.63;;
48935;SDS011;34745;52.276;10.528;2022-11-20T13:38:02;14.33;;;10.00;;
48935;SDS011;34745;52.276;10.528;2022-11-20T13:40:32;16.00;;;10.10;;
48935;SDS011;34745;52.276;10.528;2022-11-20T13:43:15;17.00;;;11.27;;
48935;SDS011;34745;52.276;10.528;2022-11-20T13:45:54;16.97;;;11.13;;
48935;SDS011;34745;52.276;10.528;2022-11-20T13:48:24;20.60;;;11.47;;
48935;SDS011;34745;52.276;10.528;2022-11-20T13:50:58;16.43;;;10.27;;
48935;SDS011;34745;52.276;10.528;2022-11-20T13:53:53;14.50;;;10.43;;
48935;SDS011;34745;52.276;10.528;2022-11-20T13:56:44;16.00;;;10.10;;
48935;SDS011;34745;52.276;10.528;2022-11-20T13:59:28;15.37;;;10.70;;
48935;SDS011;34745;52.276;10.528;2022-11-20T14:02:11;17.13;;;11.67;;
48935;SDS011;34745;52.276;10.528;2022-11-20T14:04:42;16.67;;;11.03;;
48935;SDS011;34745;52.276;10.528;2022-11-20T14:07:12;16.23;;;10.50;;
48935;SDS011;34745;52.276;10.528;2022-11-20T14:09:48;17.87;;;10.57;;
48935;SDS011;34745;52.276;10.528;2022-11-20T14:12:17;17.07;;;10.20;;
48935;SDS011;34745;52.276;10.528;2022-11-20T14:14:47;16.97;;;10.93;;
48935;SDS011;34745;52.276;10.528;2022-11-20T14:17:18;15.13;;;10.60;;
48935;SDS011;34745;52.276;10.528;2022-11-20T14:19:47;15.87;;;10.60;;
48935;SDS011;34745;52.276;10.528;2022-11-20T14:22:19;18.17;;;11.03;;
48935;SDS011;34745;52.276;10.528;2022-11-20T14:24:48;15.17;;;10.90;;
48935;SDS011;34745;52.276;10.528;2022-11-20T14:27:26;14.60;;;10.90;;
48935;SDS011;34745;52.276;10.528;2022-11-20T14:29:54;18.63;;;11.10;;
48935;SDS011;34745;52.276;10.528;2022-11-20T14:32:21;17.23;;;11.27;;
48935;SDS011;34745;52.276;10.528;2022-11-20T14:34:54;16.70;;;11.07;;